Time;durP1;ratioP1;P1;durP2;ratioP2;P2;SDS_P1;SDS_P2;PMS_P1;PMS_P2;Temp;Humidity;BMP_temperature;BMP_pressure;BME280_temperature;BME280_humidity;BME280_pressure;Samples;Min_cycle;Max_cycle;Signal;HPM_P1;HPM_P2
2023/03/29 00:02:28;;;;;;;;;14.00;14.00;;;;;16.63;100.00;101492.66;4966518;28;45405;-77
2023/03/29 00:05:00;;;;;;;;;16.33;13.67;;;;;16.67;100.00;101479.44;4966154;28;45440;-77
2023/03/29 00:07:28;;;;;;;;;11.00;11.00;;;;;16.58;100.00;101459.31;4964550;28;45489;-77
2023/03/29 00:09:54;;;;;;;;;14.33;13.00;;;;;16.63;100.00;101478.06;4964677;28;45472;-77
2023/03/29 00:12:19;;;;;;;;;12.00;12.00;;;;;16.51;100.00;101468.44;4965022;28;45539;-77
2023/03/29 00:14:45;;;;;;;;;15.33;13.67;;;;;16.56;100.00;101471.50;4980808;28;47450;-78
2023/03/29 00:17:10;;;;;;;;;17.25;15.25;;;;;16.67;100.00;101483.03;4964424;28;45231;-77
2023/03/29 00:19:35;;;;;;;;;13.00;12.00;;;;;16.62;100.00;101468.13;4966063;28;45215;-76
2023/03/29 00:22:04;;;;;;;;;9.33;8.33;;;;;16.63;98.63;101470.69;4965961;28;45424;-76
2023/03/29 00:24:30;;;;;;;;;12.67;12.67;;;;;16.66;100.00;101472.22;4965431;28;45467;-75
2023/03/29 00:26:55;;;;;;;;;13.67;12.33;;;;;16.66;98.00;101469.47;4964169;28;45883;-76
2023/03/29 00:29:20;;;;;;;;;20.33;14.00;;;;;16.70;99.20;101476.38;4964820;28;45270;-75
2023/03/29 00:31:52;;;;;;;;;15.33;13.33;;;;;16.72;96.97;101475.19;4966173;28;45452;-76
2023/03/29 00:34:18;;;;;;;;;12.67;11.33;;;;;16.55;96.38;101456.94;4964180;28;47488;-76
2023/03/29 00:36:43;;;;;;;;;11.67;11.67;;;;;16.54;97.62;101454.34;4965421;28;45415;-76
2023/03/29 00:39:09;;;;;;;;;11.33;11.33;;;;;16.73;97.41;101470.50;4965559;28;45221;-75
2023/03/29 00:41:34;;;;;;;;;14.33;11.00;;;;;16.67;97.88;101468.47;4965891;28;45413;-76
2023/03/29 00:44:02;;;;;;;;;11.00;9.33;;;;;16.73;97.20;101481.50;4965290;28;45971;-76
2023/03/29 00:46:29;;;;;;;;;13.67;11.67;;;;;16.75;95.80;101479.44;4965126;28;45339;-76
2023/03/29 00:49:01;;;;;;;;;15.67;13.00;;;;;16.74;97.49;101485.94;4980447;28;45262;-75
2023/03/29 00:51:31;;;;;;;;;14.33;13.33;;;;;16.77;95.96;101471.03;4980212;28;45381;-76
2023/03/29 00:54:00;;;;;;;;;13.00;10.67;;;;;16.73;96.20;101479.59;4963579;28;48266;-76
2023/03/29 00:56:34;;;;;;;;;9.67;9.67;;;;;16.78;94.98;101470.88;4963587;28;45389;-76
2023/03/29 00:59:08;;;;;;;;;12.67;12.33;;;;;16.77;97.17;101477.41;4980355;28;45279;-75
2023/03/29 01:02:07;;;;;;;;;11.33;11.33;;;;;16.77;96.68;101471.03;4965415;28;45573;-75
2023/03/29 01:04:44;;;;;;;;;14.00;12.33;;;;;16.78;96.30;101470.88;4984432;28;45423;-76
2023/03/29 01:07:17;;;;;;;;;14.33;12.67;;;;;16.86;93.60;101459.03;4965178;28;45359;-76
2023/03/29 01:09:47;;;;;;;;;11.33;11.33;;;;;16.88;93.42;101460.56;4964877;28;45285;-77
2023/03/29 01:12:19;;;;;;;;;12.67;10.33;;;;;16.87;94.54;101461.63;4964667;28;45215;-75
2023/03/29 01:14:51;;;;;;;;;10.00;10.00;;;;;16.84;93.04;101450.13;4963684;28;47819;-77
2023/03/29 01:17:20;;;;;;;;;12.00;10.67;;;;;16.78;93.72;101434.34;4964860;28;45440;-77
2023/03/29 01:19:56;;;;;;;;;13.67;11.00;;;;;16.85;94.49;101449.09;4964969;28;45389;-77
2023/03/29 01:22:37;;;;;;;;;14.00;11.33;;;;;16.90;93.09;101453.03;4963774;28;45255;-77
2023/03/29 01:25:35;;;;;;;;;12.67;11.00;;;;;16.96;90.94;101452.34;4979255;28;47085;-77
2023/03/29 01:28:10;;;;;;;;;14.67;14.00;;;;;16.93;90.95;101443.59;4971984;28;45337;-74
2023/03/29 01:30:50;;;;;;;;;14.00;11.00;;;;;16.91;91.33;101452.00;4979767;28;45471;-73
2023/03/29 01:33:32;;;;;;;;;15.00;15.00;;;;;16.88;92.44;101435.88;4964483;28;45418;-73
2023/03/29 01:36:28;;;;;;;;;12.67;12.00;;;;;16.90;91.08;101442.06;4964574;28;45313;-73
2023/03/29 01:38:59;;;;;;;;;11.67;11.67;;;;;16.97;90.47;101429.34;4963066;28;46228;-75
2023/03/29 01:41:42;;;;;;;;;13.00;9.33;;;;;16.95;90.97;101436.88;4963170;28;45297;-75
2023/03/29 01:44:29;;;;;;;;;14.00;10.67;;;;;16.88;91.39;101430.38;4965037;28;45284;-76
2023/03/29 01:47:07;;;;;;;;;11.33;9.33;;;;;16.82;91.09;101442.06;4963600;28;46439;-76
2023/03/29 01:49:41;;;;;;;;;9.67;9.00;;;;;16.89;89.27;101444.97;4964373;28;45267;-75
2023/03/29 01:52:17;;;;;;;;;13.00;12.00;;;;;16.89;90.46;101450.44;4963123;28;45261;-75
2023/03/29 01:54:53;;;;;;;;;12.00;12.00;;;;;16.91;90.82;101446.50;4979442;28;45396;-75
2023/03/29 01:57:21;;;;;;;;;7.67;7.67;;;;;16.84;89.04;101423.53;4979248;28;46910;-75
2023/03/29 01:59:48;;;;;;;;;9.00;9.00;;;;;16.95;90.12;101436.88;4964202;28;45537;-75
2023/03/29 02:02:17;;;;;;;;;12.67;11.00;;;;;17.02;91.34;101446.16;4964441;28;45318;-75
2023/03/29 02:04:48;;;;;;;;;11.33;9.00;;;;;16.93;90.17;101444.47;4963241;28;45583;-76
2023/03/29 02:07:19;;;;;;;;;8.33;8.00;;;;;16.90;89.27;101431.06;4964271;28;46347;-75
2023/03/29 02:09:47;;;;;;;;;11.00;11.00;;;;;16.95;89.57;101436.06;4962627;28;45317;-75
2023/03/29 02:12:15;;;;;;;;;11.00;8.67;;;;;16.90;91.38;101438.44;4964168;28;45361;-77
2023/03/29 02:14:40;;;;;;;;;9.67;9.67;;;;;16.87;90.93;101433.31;4979372;28;45259;-77
2023/03/29 02:17:21;;;;;;;;;7.00;5.00;;;;;16.86;90.13;101415.13;4995476;28;46356;-77
2023/03/29 02:19:53;;;;;;;;;10.67;8.33;;;;;16.88;90.40;101422.13;4964113;28;45440;-78
2023/03/29 02:22:26;;;;;;;;;10.67;8.67;;;;;16.88;89.82;101418.53;4962515;28;45472;-78
2023/03/29 02:24:57;;;;;;;;;13.67;12.00;;;;;16.90;89.28;101420.09;4964499;28;45226;-78
2023/03/29 02:27:25;;;;;;;;;11.33;9.00;;;;;16.91;90.01;101418.22;4963991;28;45322;-78
2023/03/29 02:29:50;;;;;;;;;12.67;11.00;;;;;16.92;91.24;101418.03;4963940;28;45262;-78
2023/03/29 02:32:23;;;;;;;;;11.67;9.33;;;;;16.89;91.95;101415.63;4962689;28;45230;-78
2023/03/29 02:35:05;;;;;;;;;11.00;11.00;;;;;16.96;91.70;101413.91;4964450;28;45310;-78
2023/03/29 02:37:35;;;;;;;;;12.00;10.00;;;;;17.00;91.79;101400.69;4978648;28;45679;-78
2023/03/29 02:40:11;;;;;;;;;13.33;9.33;;;;;16.82;92.84;101389.03;4962299;28;45401;-78
2023/03/29 02:42:38;;;;;;;;;8.67;7.67;;;;;16.86;94.15;101410.50;4964480;28;45208;-78
2023/03/29 02:45:06;;;;;;;;;9.00;8.33;;;;;16.82;95.22;101397.28;4966085;28;45371;-78
2023/03/29 02:47:37;;;;;;;;;11.33;9.33;;;;;16.81;94.92;101379.94;4967047;28;45547;-78
2023/03/29 02:50:02;;;;;;;;;9.67;9.67;;;;;16.89;93.93;101392.81;4965478;28;45724;-78
2023/03/29 02:52:34;;;;;;;;;7.00;6.00;;;;;16.86;94.21;101383.06;4967350;28;45290;-78
2023/03/29 02:55:02;;;;;;;;;8.67;8.00;;;;;16.86;94.99;101394.03;4966096;28;45533;-78
2023/03/29 02:57:28;;;;;;;;;8.33;8.33;;;;;16.85;95.39;101386.81;4965603;28;48505;-78
2023/03/29 02:59:56;;;;;;;;;9.67;7.33;;;;;16.87;94.25;101382.03;4967040;28;45194;-77
2023/03/29 03:02:24;;;;;;;;;12.67;11.33;;;;;16.86;95.79;101382.19;4967118;28;45264;-78
2023/03/29 03:04:50;;;;;;;;;9.33;9.33;;;;;16.85;95.37;101377.72;4965754;28;45280;-78
2023/03/29 03:07:16;;;;;;;;;13.00;10.33;;;;;16.91;96.75;101371.53;4966435;28;45569;-78
2023/03/29 03:09:41;;;;;;;;;7.00;7.00;;;;;16.88;95.63;101383.72;4964646;28;45910;-78
2023/03/29 03:12:07;;;;;;;;;7.00;7.00;;;;;16.84;94.99;101382.38;4965070;28;45258;-78
2023/03/29 03:14:33;;;;;;;;;7.00;7.00;;;;;16.84;97.51;101385.09;4966387;28;45443;-77
2023/03/29 03:16:58;;;;;;;;;12.00;11.33;;;;;16.86;97.40;101393.19;4964847;28;46677;-78
2023/03/29 03:19:23;;;;;;;;;9.33;9.33;;;;;16.83;97.37;101386.13;4964868;28;45183;-77
2023/03/29 03:21:49;;;;;;;;;9.67;8.00;;;;;16.87;97.42;101393.00;4966369;28;45457;-77
2023/03/29 03:24:16;;;;;;;;;12.33;10.33;;;;;16.89;97.82;101393.66;4965029;28;44986;-78
2023/03/29 03:26:45;;;;;;;;;13.33;13.33;;;;;16.62;98.90;101380.31;4965343;28;47645;-77
2023/03/29 03:29:11;;;;;;;;;12.00;9.00;;;;;16.80;98.48;101375.53;4964809;28;45320;-77
2023/03/29 03:31:36;;;;;;;;;8.67;7.67;;;;;16.85;97.76;101364.88;4966716;28;45188;-77
2023/03/29 03:34:02;;;;;;;;;9.00;7.00;;;;;16.83;98.17;101355.09;4966668;28;46522;-77
2023/03/29 03:36:30;;;;;;;;;12.33;8.00;;;;;16.90;98.15;101378.91;4964794;28;46950;-77
2023/03/29 03:38:55;;;;;;;;;9.00;9.00;;;;;16.60;99.71;101377.75;4980999;28;45392;-77
2023/03/29 03:41:21;;;;;;;;;9.67;9.33;;;;;16.53;100.00;101392.28;4966571;28;45395;-77
2023/03/29 03:43:47;;;;;;;;;7.67;7.67;;;;;16.56;100.00;101367.28;4966977;28;45671;-77
2023/03/29 03:46:15;;;;;;;;;8.00;8.00;;;;;16.75;100.00;101380.66;4966261;28;45755;-77
2023/03/29 03:48:41;;;;;;;;;10.33;10.00;;;;;16.69;100.00;101363.00;4966167;28;45274;-77
2023/03/29 03:51:06;;;;;;;;;8.67;8.67;;;;;16.86;99.83;101387.69;4964971;28;45278;-78
2023/03/29 03:53:32;;;;;;;;;12.00;11.00;;;;;16.86;100.00;101385.81;4966980;28;45165;-78
2023/03/29 03:55:58;;;;;;;;;17.00;15.00;;;;;16.83;100.00;101364.19;4965990;28;45386;-76
2023/03/29 03:58:23;;;;;;;;;10.67;9.33;;;;;16.92;100.00;101376.00;4964994;28;45306;-78
2023/03/29 04:00:49;;;;;;;;;12.00;12.00;;;;;16.85;100.00;101370.34;4965217;28;45343;-77
2023/03/29 04:03:16;;;;;;;;;9.67;9.67;;;;;16.96;100.00;101389.19;4978532;28;45328;-78
2023/03/29 04:05:43;;;;;;;;;11.67;9.00;;;;;16.83;100.00;101388.88;4965884;28;46602;-77
2023/03/29 04:08:11;;;;;;;;;14.00;11.00;;;;;16.73;100.00;101382.69;4964685;28;45411;-78
2023/03/29 04:10:37;;;;;;;;;8.33;8.33;;;;;16.70;100.00;101355.63;4966783;28;45225;-77
2023/03/29 04:13:03;;;;;;;;;8.67;8.67;;;;;16.86;100.00;101387.69;4967143;28;45230;-78
2023/03/29 04:15:30;;;;;;;;;11.67;10.00;;;;;16.96;100.00;101371.88;4966739;28;45321;-77
2023/03/29 04:17:56;;;;;;;;;9.33;9.33;;;;;16.98;100.00;101367.06;4965988;28;45341;-78
2023/03/29 04:20:21;;;;;;;;;8.33;8.33;;;;;17.10;100.00;101366.50;4966226;28;45309;-77
2023/03/29 04:22:47;;;;;;;;;8.00;8.00;;;;;17.15;100.00;101366.00;4998019;28;45493;-77
2023/03/29 04:25:13;;;;;;;;;8.67;8.67;;;;;17.20;100.00;101357.22;4965798;28;45428;-77
2023/03/29 04:27:38;;;;;;;;;8.00;8.00;;;;;17.23;100.00;101359.63;4966554;28;45384;-77
2023/03/29 04:30:06;;;;;;;;;10.33;8.33;;;;;17.17;100.00;101358.44;4964406;28;45378;-77
2023/03/29 04:32:31;;;;;;;;;13.33;11.00;;;;;17.02;100.00;101360.22;4965190;28;45576;-78
2023/03/29 04:34:57;;;;;;;;;11.00;8.00;;;;;16.87;100.00;101372.94;4965611;28;46456;-77
2023/03/29 04:37:22;;;;;;;;;12.33;10.67;;;;;16.90;100.00;101367.06;4979029;28;45202;-76
2023/03/29 04:39:49;;;;;;;;;12.67;8.67;;;;;16.93;100.00;101374.97;4980259;28;45241;-76
2023/03/29 04:42:14;;;;;;;;;12.00;10.00;;;;;16.99;100.00;101377.03;4965849;28;45562;-76
2023/03/29 04:44:42;;;;;;;;;8.00;8.00;;;;;16.96;100.00;101361.75;4968496;28;45420;-79
2023/03/29 04:47:09;;;;;;;;;8.00;8.00;;;;;17.04;100.00;101358.97;4990910;28;45425;-77
2023/03/29 04:49:34;;;;;;;;;9.67;8.33;;;;;17.10;100.00;101352.78;4972166;28;45311;-77
2023/03/29 04:51:59;;;;;;;;;11.00;7.00;;;;;17.16;100.00;101353.13;4966288;28;45238;-77
2023/03/29 04:54:25;;;;;;;;;8.33;7.00;;;;;17.25;100.00;101349.31;4965090;28;46515;-78
2023/03/29 04:56:51;;;;;;;;;10.00;8.67;;;;;17.24;100.00;101333.88;4966526;28;45372;-79
2023/03/29 04:59:16;;;;;;;;;9.00;7.33;;;;;17.29;100.00;101331.44;4965871;28;45230;-78
2023/03/29 05:01:42;;;;;;;;;11.00;9.00;;;;;17.28;100.00;101347.06;4964751;28;45591;-79
2023/03/29 05:04:08;;;;;;;;;7.00;6.00;;;;;17.21;100.00;101326.00;4996805;28;46530;-77
2023/03/29 05:06:33;;;;;;;;;8.00;7.00;;;;;17.22;100.00;101338.69;4964873;28;46744;-78
2023/03/29 05:08:59;;;;;;;;;8.00;8.00;;;;;17.15;100.00;101356.91;4966386;28;45249;-78
2023/03/29 05:11:26;;;;;;;;;10.00;8.00;;;;;17.18;100.00;101360.13;4982427;28;45336;-79
2023/03/29 05:13:51;;;;;;;;;10.33;8.33;;;;;17.08;100.00;101360.38;4963521;28;47253;-77
2023/03/29 05:16:18;;;;;;;;;6.33;6.33;;;;;16.96;100.00;101367.25;4952654;28;45262;-77
2023/03/29 05:18:43;;;;;;;;;9.67;6.33;;;;;17.08;100.00;101365.00;4965618;28;45265;-79
2023/03/29 05:21:08;;;;;;;;;5.67;5.33;;;;;17.04;100.00;101367.22;4966503;28;45323;-77
2023/03/29 05:23:34;;;;;;;;;7.67;7.67;;;;;17.19;100.00;101364.59;4964057;28;48266;-80
2023/03/29 05:26:00;;;;;;;;;6.00;6.00;;;;;17.05;100.00;101360.69;4966492;28;45202;-78
2023/03/29 05:28:26;;;;;;;;;9.33;6.33;;;;;17.17;100.00;101355.69;4966681;28;45255;-78
2023/03/29 05:31:01;;;;;;;;;8.00;7.33;;;;;17.20;100.00;101362.72;4965960;28;45238;-79
2023/03/29 05:33:27;;;;;;;;;5.67;5.67;;;;;17.22;100.00;101356.03;4964426;28;47772;-79
2023/03/29 05:36:00;;;;;;;;;12.00;6.00;;;;;17.29;100.00;101348.78;4959884;28;45370;-78
2023/03/29 05:38:26;;;;;;;;;8.00;8.00;;;;;17.26;100.00;101334.53;4992360;28;45384;-78
2023/03/29 05:40:51;;;;;;;;;5.33;5.33;;;;;17.36;100.00;101324.22;4965801;28;45143;-78
2023/03/29 05:43:17;;;;;;;;;9.00;5.67;;;;;17.37;100.00;101326.78;4964132;28;46483;-79
2023/03/29 05:45:42;;;;;;;;;7.33;6.00;;;;;17.29;100.00;101336.94;4964058;28;45415;-80
2023/03/29 05:48:07;;;;;;;;;6.00;4.33;;;;;17.35;100.00;101349.97;4965727;28;45865;-78
2023/03/29 05:50:33;;;;;;;;;8.00;5.00;;;;;17.23;100.00;101341.25;4965765;28;45191;-78
2023/03/29 05:52:58;;;;;;;;;5.00;5.00;;;;;17.23;100.00;101334.91;4962612;28;47095;-77
2023/03/29 05:55:24;;;;;;;;;6.00;6.00;;;;;17.27;100.00;101348.09;4963410;28;45399;-78
2023/03/29 05:57:49;;;;;;;;;5.00;4.33;;;;;17.23;100.00;101346.75;4964917;28;45243;-78
2023/03/29 06:00:20;;;;;;;;;4.67;4.67;;;;;17.29;100.00;101339.69;4965332;28;45430;-78
2023/03/29 06:02:46;;;;;;;;;8.00;7.33;;;;;17.42;100.00;101353.72;4977966;28;45373;-77
2023/03/29 06:05:12;;;;;;;;;7.00;7.00;;;;;17.47;100.00;101340.28;4965272;28;45339;-76
2023/03/29 06:07:38;;;;;;;;;9.00;8.00;;;;;17.48;100.00;101342.84;4979912;28;45229;-79
2023/03/29 06:10:05;;;;;;;;;10.33;7.67;;;;;17.54;100.00;101352.28;4973880;28;45530;-79
2023/03/29 06:12:30;;;;;;;;;7.33;7.33;;;;;17.47;100.00;101334.78;4970300;28;47696;-78
2023/03/29 06:14:57;;;;;;;;;7.33;6.67;;;;;17.44;100.00;101327.78;4979172;28;45371;-77
2023/03/29 06:17:22;;;;;;;;;10.00;8.33;;;;;17.48;100.00;101331.00;4994497;28;45391;-78
2023/03/29 06:19:48;;;;;;;;;6.33;6.33;;;;;17.42;100.00;101351.81;4963376;28;45555;-79
2023/03/29 06:22:13;;;;;;;;;6.00;6.00;;;;;17.40;100.00;101329.16;4965588;28;45414;-80
2023/03/29 06:24:38;;;;;;;;;8.33;7.33;;;;;17.43;100.00;101315.09;4995958;28;45858;-79
2023/03/29 06:27:04;;;;;;;;;6.67;6.67;;;;;17.56;100.00;101319.13;4984563;28;45327;-79
2023/03/29 06:29:29;;;;;;;;;7.00;7.00;;;;;17.65;100.00;101324.44;4979282;28;45462;-79
2023/03/29 06:31:56;;;;;;;;;10.00;8.67;;;;;17.75;100.00;101329.72;4963984;28;46160;-79
2023/03/29 06:34:21;;;;;;;;;7.00;6.00;;;;;17.78;100.00;101321.94;4978432;28;45711;-79
2023/03/29 06:36:46;;;;;;;;;14.67;9.33;;;;;17.80;100.00;101317.13;4963475;28;45419;-80
2023/03/29 06:39:12;;;;;;;;;12.33;9.00;;;;;17.88;100.00;101325.34;4964110;28;44854;-80
2023/03/29 06:41:38;;;;;;;;;14.33;10.00;;;;;17.90;100.00;101327.88;4963690;28;46046;-80
2023/03/29 06:44:04;;;;;;;;;13.00;11.33;;;;;18.01;100.00;101329.34;4973772;28;45348;-80
2023/03/29 06:46:29;;;;;;;;;18.00;12.33;;;;;18.05;100.00;101325.19;4963680;28;45215;-81
2023/03/29 06:48:55;;;;;;;;;10.00;8.33;;;;;18.09;100.00;101332.06;4963251;28;45577;-81
2023/03/29 06:51:21;;;;;;;;;14.67;9.67;;;;;18.12;100.00;101337.16;4964185;28;45457;-80
2023/03/29 06:53:46;;;;;;;;;12.00;12.00;;;;;17.88;100.00;101347.31;4974304;28;45332;-82
2023/03/29 06:56:13;;;;;;;;;15.00;9.67;;;;;17.86;100.00;101340.28;4976928;28;45468;-81
2023/03/29 06:58:39;;;;;;;;;9.33;9.33;;;;;17.97;100.00;101328.84;4980488;28;45455;-81
2023/03/29 07:01:05;;;;;;;;;12.33;9.00;;;;;18.16;100.00;101330.28;4962761;28;47586;-80
2023/03/29 07:03:33;;;;;;;;;10.00;10.00;;;;;18.37;100.00;101341.47;4963721;28;45233;-79
2023/03/29 07:06:02;;;;;;;;;12.00;10.33;;;;;18.33;100.00;101342.88;4964314;28;45477;-79
2023/03/29 07:08:30;;;;;;;;;14.67;12.33;;;;;18.39;100.00;101335.78;4964249;28;45313;-80
2023/03/29 07:10:57;;;;;;;;;8.67;8.00;;;;;18.43;100.00;101329.69;4961429;28;45468;-81
2023/03/29 07:13:23;;;;;;;;;9.00;9.00;;;;;18.57;100.00;101339.91;4962480;28;45268;-81
2023/03/29 07:15:48;;;;;;;;;8.67;8.00;;;;;18.65;100.00;101348.09;4963021;28;45332;-80
2023/03/29 07:18:14;;;;;;;;;9.00;9.00;;;;;18.79;100.00;101342.81;4962936;28;45277;-82
2023/03/29 07:20:41;;;;;;;;;11.67;9.00;;;;;18.99;100.00;101344.00;4963614;28;45353;-80
2023/03/29 07:23:08;;;;;;;;;10.67;9.00;;;;;19.07;100.00;101338.38;4964200;28;45622;-82
2023/03/29 07:25:35;;;;;;;;;14.67;10.33;;;;;19.14;100.00;101344.84;4961470;28;45467;-79
2023/03/29 07:28:00;;;;;;;;;12.00;10.00;;;;;18.78;100.00;101344.72;4961982;28;45493;-82
2023/03/29 07:30:28;;;;;;;;;15.00;12.67;;;;;18.45;100.00;101337.78;4964556;28;45315;-81
2023/03/29 07:32:54;;;;;;;;;27.33;23.00;;;;;18.69;100.00;101347.75;4966196;28;45235;-80
2023/03/29 07:35:20;;;;;;;;;12.00;12.00;;;;;18.85;100.00;101350.34;4965934;28;45529;-80
2023/03/29 07:37:46;;;;;;;;;11.33;11.33;;;;;18.95;100.00;101353.66;4982500;28;45621;-80
2023/03/29 07:40:15;;;;;;;;;11.00;10.00;;;;;18.80;100.00;101339.03;4982270;28;45452;-80
2023/03/29 07:42:45;;;;;;;;;11.00;11.00;;;;;18.99;100.00;101341.25;4967045;28;45443;-81
2023/03/29 07:45:12;;;;;;;;;13.67;12.00;;;;;19.19;100.00;101336.88;4966640;28;45409;-82
2023/03/29 07:47:45;;;;;;;;;15.67;11.67;;;;;19.08;100.00;101329.06;4967513;28;45305;-82
2023/03/29 07:50:11;;;;;;;;;14.00;11.33;;;;;19.44;100.00;101335.50;4966826;28;45397;-81
2023/03/29 07:52:37;;;;;;;;;12.67;11.00;;;;;19.73;100.00;101334.63;4966879;28;45490;-82
2023/03/29 07:55:07;;;;;;;;;11.33;11.33;;;;;19.98;100.00;101326.00;4980951;28;45366;-80
2023/03/29 07:57:33;;;;;;;;;12.00;9.00;;;;;20.21;100.00;101338.56;4980306;28;45181;-80
2023/03/29 07:59:58;;;;;;;;;11.67;11.33;;;;;20.25;100.00;101321.59;4967788;28;45207;-77
2023/03/29 08:02:24;;;;;;;;;10.00;10.00;;;;;20.46;100.00;101340.94;4967648;28;45153;-80
2023/03/29 08:04:50;;;;;;;;;14.67;12.00;;;;;20.49;100.00;101351.59;4986631;28;45376;-81
2023/03/29 08:07:20;;;;;;;;;11.00;11.00;;;;;20.11;100.00;101348.22;4975928;28;45333;-80
2023/03/29 08:09:45;;;;;;;;;12.33;11.00;;;;;20.31;100.00;101326.34;4966438;28;45373;-80
2023/03/29 08:12:10;;;;;;;;;11.33;11.33;;;;;20.28;100.00;101355.19;4965767;28;45444;-80
2023/03/29 08:14:37;;;;;;;;;12.33;12.33;;;;;20.41;100.00;101343.44;4966084;28;45230;-82
2023/03/29 08:17:03;;;;;;;;;17.00;14.33;;;;;20.41;100.00;101344.31;4998549;28;45542;-81
2023/03/29 08:19:28;;;;;;;;;12.33;11.00;;;;;20.41;100.00;101349.81;5004793;28;47674;-79
2023/03/29 08:21:54;;;;;;;;;13.67;12.33;;;;;20.57;100.00;101348.69;4972984;28;45424;-81
2023/03/29 08:24:19;;;;;;;;;11.33;10.00;;;;;20.66;100.00;101353.03;4964633;28;45305;-81
2023/03/29 08:26:44;;;;;;;;;8.33;8.00;;;;;20.71;100.00;101346.91;4966596;28;45351;-81
2023/03/29 08:29:10;;;;;;;;;10.67;9.67;;;;;20.75;100.00;101339.94;4965701;28;46704;-81
2023/03/29 08:31:35;;;;;;;;;8.67;8.67;;;;;20.38;100.00;101341.09;4966024;28;45306;-81
2023/03/29 08:34:01;;;;;;;;;10.00;7.67;;;;;20.43;100.00;101346.88;4981822;28;45400;-81
2023/03/29 08:36:26;;;;;;;;;9.67;6.00;;;;;20.50;100.00;101354.16;4967014;28;45559;-81
2023/03/29 08:38:52;;;;;;;;;9.67;6.67;;;;;20.46;100.00;101333.50;4965721;28;45421;-81
2023/03/29 08:41:42;;;;;;;;;11.33;8.33;;;;;20.28;100.00;101321.22;4963644;28;45341;-80
2023/03/29 08:44:30;;;;;;;;;9.33;6.33;;;;;20.11;100.00;101351.81;4965012;28;45478;-79
2023/03/29 08:47:06;;;;;;;;;7.67;6.00;;;;;20.41;100.00;101357.25;4967589;28;45624;-81
2023/03/29 08:49:33;;;;;;;;;8.33;7.00;;;;;20.41;100.00;101341.53;4966076;28;45790;-81
2023/03/29 08:52:04;;;;;;;;;11.00;7.67;;;;;20.57;100.00;101337.66;4965688;28;45352;-81
2023/03/29 08:54:45;;;;;;;;;9.67;5.33;;;;;20.58;100.00;101312.63;4963935;28;45356;-80
2023/03/29 08:57:32;;;;;;;;;9.00;9.00;;;;;20.70;100.00;101339.66;4965010;28;45258;-80
2023/03/29 09:00:03;;;;;;;;;7.00;7.00;;;;;20.77;100.00;101340.56;4965582;28;45525;-81
2023/03/29 09:02:32;;;;;;;;;8.33;8.33;;;;;20.80;100.00;101334.66;4963587;28;45560;-81
2023/03/29 09:05:27;;;;;;;;;11.33;11.00;;;;;20.82;100.00;101341.66;4981194;28;45332;-80
2023/03/29 09:07:53;;;;;;;;;10.00;9.00;;;;;21.07;100.00;101350.34;4969559;28;45400;-80
2023/03/29 09:10:24;;;;;;;;;8.33;8.00;;;;;21.17;100.00;101348.13;4965485;28;45509;-80
2023/03/29 09:13:05;;;;;;;;;13.00;9.00;;;;;21.36;100.00;101341.84;4980295;28;45312;-81
2023/03/29 09:15:52;;;;;;;;;8.00;7.00;;;;;21.43;100.00;101332.72;4965453;28;45387;-80
2023/03/29 09:18:43;;;;;;;;;7.67;7.67;;;;;21.46;100.00;101337.88;4966261;28;45313;-79
2023/03/29 09:21:17;;;;;;;;;11.67;7.67;;;;;21.85;100.00;101337.16;4965970;28;45510;-80
2023/03/29 09:24:08;;;;;;;;;12.00;6.67;;;;;21.99;100.00;101327.88;4979195;28;45518;-81
2023/03/29 09:26:51;;;;;;;;;8.67;6.00;;;;;22.46;100.00;101319.41;4964732;28;45417;-80
2023/03/29 09:29:24;;;;;;;;;20.67;20.00;;;;;22.63;100.00;101330.09;4964235;28;45525;-79
2023/03/29 09:31:50;;;;;;;;;7.33;7.33;;;;;22.82;100.00;101337.56;4963058;28;47108;-80
2023/03/29 09:34:42;;;;;;;;;9.00;7.67;;;;;23.00;100.00;101321.13;4965860;28;45372;-80
2023/03/29 09:37:20;;;;;;;;;7.00;5.33;;;;;23.37;100.00;101304.81;4979713;28;45222;-80
2023/03/29 09:39:48;;;;;;;;;9.33;9.00;;;;;23.66;100.00;101307.06;4965077;28;45427;-79
2023/03/29 09:42:16;;;;;;;;;10.67;7.00;;;;;23.57;100.00;101305.63;4964436;28;46058;-80
2023/03/29 09:44:52;;;;;;;;;5.00;5.00;;;;;23.36;100.00;101322.53;4979539;28;45460;-80
2023/03/29 09:47:34;;;;;;;;;7.00;6.67;;;;;23.10;100.00;101312.34;4983990;28;45273;-80
2023/03/29 09:50:10;;;;;;;;;9.67;6.67;;;;;23.19;100.00;101306.34;4964922;28;45383;-80
2023/03/29 09:52:35;;;;;;;;;6.00;6.00;;;;;23.39;100.00;101295.19;4964766;28;46215;-80
2023/03/29 09:55:03;;;;;;;;;7.33;6.00;;;;;23.41;100.00;101294.97;4965032;28;45447;-80
2023/03/29 09:57:29;;;;;;;;;7.33;6.00;;;;;23.41;100.00;101301.38;4965539;28;45314;-81
2023/03/29 09:59:56;;;;;;;;;7.33;5.00;;;;;23.16;100.00;101290.16;4963640;28;45240;-80
2023/03/29 10:02:21;;;;;;;;;8.33;5.33;;;;;22.94;100.00;101283.16;4964767;28;45740;-81
2023/03/29 10:04:59;;;;;;;;;6.33;6.00;;;;;23.20;100.00;101280.34;4963317;28;45503;-81
2023/03/29 10:07:34;;;;;;;;;7.33;5.33;;;;;23.19;100.00;101284.19;4979789;28;45469;-81
2023/03/29 10:09:59;;;;;;;;;7.00;6.00;;;;;23.79;100.00;101270.94;4965221;28;45436;-81
2023/03/29 10:12:25;;;;;;;;;6.00;6.00;;;;;24.22;100.00;101282.19;4964175;28;47135;-81
2023/03/29 10:14:53;;;;;;;;;11.33;6.33;;;;;24.33;100.00;101286.16;4964020;28;44680;-81
2023/03/29 10:17:25;;;;;;;;;10.67;8.33;;;;;24.75;100.00;101287.31;4996648;28;45370;-80
2023/03/29 10:20:01;;;;;;;;;4.67;4.67;;;;;24.21;100.00;101274.09;4984837;28;45239;-81
2023/03/29 10:22:36;;;;;;;;;6.00;5.00;;;;;24.08;100.00;101271.38;4974792;28;45429;-80
2023/03/29 10:25:03;;;;;;;;;6.33;5.33;;;;;24.27;100.00;101270.41;4989131;28;45481;-81
2023/03/29 10:27:33;;;;;;;;;13.00;5.67;;;;;24.12;100.00;101267.06;4974138;28;45550;-80
2023/03/29 10:30:06;;;;;;;;;12.00;8.67;;;;;24.70;100.00;101251.84;4976906;28;44767;-80
2023/03/29 10:32:36;;;;;;;;;8.00;5.67;;;;;24.74;96.40;101261.44;4972743;28;47081;-80
2023/03/29 10:35:08;;;;;;;;;7.00;7.00;;;;;25.12;98.76;101246.53;4971441;28;45419;-79
2023/03/29 10:37:33;;;;;;;;;9.67;7.00;;;;;25.67;92.13;101252.03;4999550;28;45490;-80
2023/03/29 10:39:59;;;;;;;;;11.33;9.33;;;;;25.36;88.17;101230.81;4983682;28;45364;-82
2023/03/29 10:42:33;;;;;;;;;8.33;7.00;;;;;25.85;87.25;101227.81;5013374;28;47987;-82
2023/03/29 10:44:59;;;;;;;;;6.67;5.33;;;;;25.67;84.55;101176.91;4981057;28;45356;-81
2023/03/29 10:47:25;;;;;;;;;5.67;5.00;;;;;26.19;81.78;101219.75;4983602;28;45417;-82
2023/03/29 10:49:54;;;;;;;;;7.33;6.00;;;;;26.51;83.84;101237.03;4968011;28;45404;-81
2023/03/29 10:52:20;;;;;;;;;8.67;4.33;;;;;26.13;76.67;101241.06;4984016;28;47031;-81
2023/03/29 10:54:48;;;;;;;;;5.00;5.00;;;;;25.90;76.59;101230.72;4967001;28;45423;-80
2023/03/29 10:57:39;;;;;;;;;4.00;4.00;;;;;25.71;77.69;101225.44;4968319;28;45371;-80
2023/03/29 11:00:26;;;;;;;;;8.67;6.00;;;;;26.42;78.88;101224.53;4955793;28;45244;-81
2023/03/29 11:03:01;;;;;;;;;7.00;4.00;;;;;26.80;74.54;101232.41;4966794;28;45434;-80
2023/03/29 11:05:46;;;;;;;;;5.00;4.33;;;;;26.39;73.59;101222.22;4967187;28;45381;-80
2023/03/29 11:08:26;;;;;;;;;7.67;4.67;;;;;26.94;69.33;101226.38;4970869;28;45329;-80
2023/03/29 11:11:16;;;;;;;;;4.67;4.00;;;;;26.79;68.93;101205.63;4989058;28;45162;-80
2023/03/29 11:14:20;;;;;;;;;5.67;5.00;;;;;27.18;65.70;101204.00;4996173;28;45423;-80
2023/03/29 11:16:55;;;;;;;;;2.00;2.00;;;;;27.00;60.82;101218.97;4984737;28;45284;-81
2023/03/29 11:19:30;;;;;;;;;3.00;3.00;;;;;27.25;60.62;101205.53;4970524;28;45323;-80
2023/03/29 11:22:38;;;;;;;;;5.67;3.67;;;;;27.25;58.48;101208.31;4971058;28;45388;-81
2023/03/29 11:25:25;;;;;;;;;5.00;5.00;;;;;26.99;54.45;101209.75;4970525;28;46452;-81
2023/03/29 11:28:05;;;;;;;;;6.00;4.00;;;;;26.78;55.00;101217.88;4973019;28;45313;-81